sensor_id;sensor_type;location;lat;lon;timestamp;P1;durP1;ratioP1;P2;durP2;ratioP2
5149;SDS011;2593;52.466;13.436;2023-03-01T00:00:36;36.47;;;16.60;;
5149;SDS011;2593;52.466;13.436;2023-03-01T00:03:02;40.97;;;17.00;;
5149;SDS011;2593;52.466;13.436;2023-03-01T00:05:28;36.17;;;15.67;;
5149;SDS011;2593;52.466;13.436;2023-03-01T00:07:54;44.07;;;15.73;;
5149;SDS011;2593;52.466;13.436;2023-03-01T00:10:19;45.70;;;15.87;;
5149;SDS011;2593;52.466;13.436;2023-03-01T00:12:45;35.33;;;15.90;;
5149;SDS011;2593;52.466;13.436;2023-03-01T00:15:11;40.23;;;17.17;;
5149;SDS011;2593;52.466;13.436;2023-03-01T00:17:36;39.60;;;15.70;;
5149;SDS011;2593;52.466;13.436;2023-03-01T00:20:02;40.03;;;17.20;;
5149;SDS011;2593;52.466;13.436;2023-03-01T00:22:32;45.87;;;16.90;;
5149;SDS011;2593;52.466;13.436;2023-03-01T00:24:58;47.10;;;16.33;;
5149;SDS011;2593;52.466;13.436;2023-03-01T00:27:24;30.90;;;15.43;;
5149;SDS011;2593;52.466;13.436;2023-03-01T00:29:49;61.57;;;17.67;;
5149;SDS011;2593;52.466;13.436;2023-03-01T00:32:15;41.43;;;17.53;;
5149;SDS011;2593;52.466;13.436;2023-03-01T00:34:40;39.97;;;16.70;;
5149;SDS011;2593;52.466;13.436;2023-03-01T00:37:06;49.97;;;19.40;;
5149;SDS011;2593;52.466;13.436;2023-03-01T00:39:32;34.53;;;16.37;;
5149;SDS011;2593;52.466;13.436;2023-03-01T00:41:58;39.27;;;17.10;;
5149;SDS011;2593;52.466;13.436;2023-03-01T00:44:24;31.77;;;15.20;;
5149;SDS011;2593;52.466;13.436;2023-03-01T00:46:50;42.43;;;15.80;;
5149;SDS011;2593;52.466;13.436;2023-03-01T00:49:15;35.17;;;16.30;;
5149;SDS011;2593;52.466;13.436;2023-03-01T00:51:41;49.63;;;17.43;;
5149;SDS011;2593;52.466;13.436;2023-03-01T00:54:07;41.40;;;17.20;;
5149;SDS011;2593;52.466;13.436;2023-03-01T00:56:34;33.57;;;17.33;;
5149;SDS011;2593;52.466;13.436;2023-03-01T00:59:00;38.57;;;16.53;;
5149;SDS011;2593;52.466;13.436;2023-03-01T01:01:27;39.73;;;17.80;;
5149;SDS011;2593;52.466;13.436;2023-03-01T01:03:55;51.33;;;18.60;;
5149;SDS011;2593;52.466;13.436;2023-03-01T01:06:27;37.80;;;16.77;;
5149;SDS011;2593;52.466;13.436;2023-03-01T01:08:54;34.23;;;15.93;;
5149;SDS011;2593;52.466;13.436;2023-03-01T01:11:22;47.77;;;16.30;;
5149;SDS011;2593;52.466;13.436;2023-03-01T01:13:48;38.83;;;16.80;;
5149;SDS011;2593;52.466;13.436;2023-03-01T01:16:16;34.50;;;15.90;;
5149;SDS011;2593;52.466;13.436;2023-03-01T01:18:43;43.63;;;17.17;;
5149;SDS011;2593;52.466;13.436;2023-03-01T01:21:10;33.37;;;16.10;;
5149;SDS011;2593;52.466;13.436;2023-03-01T01:23:37;36.63;;;16.30;;
5149;SDS011;2593;52.466;13.436;2023-03-01T01:26:08;43.23;;;15.23;;
5149;SDS011;2593;52.466;13.436;2023-03-01T01:28:36;39.03;;;15.73;;
5149;SDS011;2593;52.466;13.436;2023-03-01T01:31:02;36.07;;;15.47;;
5149;SDS011;2593;52.466;13.436;2023-03-01T01:33:28;29.70;;;14.80;;
5149;SDS011;2593;52.466;13.436;2023-03-01T01:35:54;33.77;;;14.90;;
5149;SDS011;2593;52.466;13.436;2023-03-01T01:38:20;36.73;;;15.83;;
5149;SDS011;2593;52.466;13.436;2023-03-01T01:40:46;42.97;;;15.40;;
5149;SDS011;2593;52.466;13.436;2023-03-01T01:43:33;33.57;;;16.03;;
5149;SDS011;2593;52.466;13.436;2023-03-01T01:46:03;31.13;;;15.03;;
5149;SDS011;2593;52.466;13.436;2023-03-01T01:48:39;35.73;;;16.37;;
5149;SDS011;2593;52.466;13.436;2023-03-01T01:51:10;33.17;;;16.17;;
5149;SDS011;2593;52.466;13.436;2023-03-01T01:53:39;45.20;;;18.53;;
5149;SDS011;2593;52.466;13.436;2023-03-01T01:56:07;37.87;;;16.20;;
5149;SDS011;2593;52.466;13.436;2023-03-01T01:58:35;32.70;;;16.63;;
5149;SDS011;2593;52.466;13.436;2023-03-01T02:01:01;29.93;;;15.83;;
5149;SDS011;2593;52.466;13.436;2023-03-01T02:03:31;33.53;;;15.50;;
5149;SDS011;2593;52.466;13.436;2023-03-01T02:08:53;38.10;;;17.53;;
5149;SDS011;2593;52.466;13.436;2023-03-01T02:11:24;41.13;;;16.20;;
5149;SDS011;2593;52.466;13.436;2023-03-01T02:13:51;40.50;;;18.07;;
5149;SDS011;2593;52.466;13.436;2023-03-01T02:16:18;37.00;;;15.20;;
5149;SDS011;2593;52.466;13.436;2023-03-01T02:18:45;30.23;;;16.17;;
5149;SDS011;2593;52.466;13.436;2023-03-01T02:27:11;32.73;;;15.77;;
5149;SDS011;2593;52.466;13.436;2023-03-01T02:29:37;39.17;;;17.80;;
5149;SDS011;2593;52.466;13.436;2023-03-01T02:32:03;33.83;;;18.20;;
5149;SDS011;2593;52.466;13.436;2023-03-01T02:34:30;42.00;;;17.07;;
5149;SDS011;2593;52.466;13.436;2023-03-01T02:37:01;39.93;;;19.63;;
5149;SDS011;2593;52.466;13.436;2023-03-01T02:39:34;39.97;;;19.13;;
5149;SDS011;2593;52.466;13.436;2023-03-01T02:42:06;42.30;;;18.47;;
5149;SDS011;2593;52.466;13.436;2023-03-01T02:44:36;40.23;;;19.40;;
5149;SDS011;2593;52.466;13.436;2023-03-01T02:47:02;36.43;;;18.17;;
5149;SDS011;2593;52.466;13.436;2023-03-01T02:49:30;42.17;;;18.93;;
5149;SDS011;2593;52.466;13.436;2023-03-01T02:57:26;35.93;;;19.07;;
5149;SDS011;2593;52.466;13.436;2023-03-01T02:59:54;39.80;;;17.87;;
5149;SDS011;2593;52.466;13.436;2023-03-01T03:05:04;42.23;;;20.23;;
5149;SDS011;2593;52.466;13.436;2023-03-01T03:07:31;37.60;;;19.43;;
5149;SDS011;2593;52.466;13.436;2023-03-01T03:09:59;47.33;;;22.10;;
5149;SDS011;2593;52.466;13.436;2023-03-01T03:12:25;46.43;;;20.20;;
5149;SDS011;2593;52.466;13.436;2023-03-01T03:14:51;42.97;;;20.33;;
5149;SDS011;2593;52.466;13.436;2023-03-01T03:17:16;42.90;;;20.63;;
5149;SDS011;2593;52.466;13.436;2023-03-01T03:19:42;44.67;;;20.70;;
5149;SDS011;2593;52.466;13.436;2023-03-01T03:22:10;53.33;;;20.53;;
5149;SDS011;2593;52.466;13.436;2023-03-01T03:24:36;38.77;;;18.73;;
5149;SDS011;2593;52.466;13.436;2023-03-01T03:27:03;41.73;;;19.63;;
5149;SDS011;2593;52.466;13.436;2023-03-01T03:29:29;48.40;;;21.23;;
5149;SDS011;2593;52.466;13.436;2023-03-01T03:31:55;38.43;;;19.13;;
5149;SDS011;2593;52.466;13.436;2023-03-01T03:34:21;38.20;;;18.73;;
5149;SDS011;2593;52.466;13.436;2023-03-01T03:36:47;33.87;;;18.27;;
5149;SDS011;2593;52.466;13.436;2023-03-01T03:39:12;37.20;;;19.90;;
5149;SDS011;2593;52.466;13.436;2023-03-01T03:41:38;37.60;;;18.30;;
5149;SDS011;2593;52.466;13.436;2023-03-01T03:44:04;37.83;;;19.63;;
5149;SDS011;2593;52.466;13.436;2023-03-01T03:46:29;36.73;;;18.70;;
5149;SDS011;2593;52.466;13.436;2023-03-01T03:48:55;37.23;;;17.00;;
5149;SDS011;2593;52.466;13.436;2023-03-01T03:51:20;38.03;;;19.10;;
5149;SDS011;2593;52.466;13.436;2023-03-01T03:53:47;34.17;;;18.37;;
5149;SDS011;2593;52.466;13.436;2023-03-01T03:56:13;33.53;;;18.27;;
5149;SDS011;2593;52.466;13.436;2023-03-01T03:58:39;31.93;;;17.67;;
5149;SDS011;2593;52.466;13.436;2023-03-01T04:01:04;33.40;;;17.67;;
5149;SDS011;2593;52.466;13.436;2023-03-01T04:03:31;32.20;;;18.03;;
5149;SDS011;2593;52.466;13.436;2023-03-01T04:05:58;43.00;;;19.37;;
5149;SDS011;2593;52.466;13.436;2023-03-01T04:08:24;32.80;;;17.73;;
5149;SDS011;2593;52.466;13.436;2023-03-01T04:10:51;37.50;;;17.77;;
5149;SDS011;2593;52.466;13.436;2023-03-01T04:13:19;75.53;;;25.47;;
5149;SDS011;2593;52.466;13.436;2023-03-01T04:15:49;43.80;;;21.67;;
5149;SDS011;2593;52.466;13.436;2023-03-01T04:18:16;64.60;;;24.77;;
5149;SDS011;2593;52.466;13.436;2023-03-01T04:20:43;48.63;;;20.60;;
5149;SDS011;2593;52.466;13.436;2023-03-01T04:23:13;47.37;;;17.63;;
5149;SDS011;2593;52.466;13.436;2023-03-01T04:28:18;39.77;;;18.10;;
5149;SDS011;2593;52.466;13.436;2023-03-01T04:30:45;29.30;;;16.30;;
5149;SDS011;2593;52.466;13.436;2023-03-01T04:33:11;38.57;;;18.30;;
5149;SDS011;2593;52.466;13.436;2023-03-01T04:35:37;29.50;;;16.60;;
5149;SDS011;2593;52.466;13.436;2023-03-01T04:38:04;31.13;;;17.33;;
5149;SDS011;2593;52.466;13.436;2023-03-01T04:40:30;29.53;;;16.40;;
5149;SDS011;2593;52.466;13.436;2023-03-01T04:42:56;38.47;;;19.20;;
5149;SDS011;2593;52.466;13.436;2023-03-01T04:45:22;46.47;;;20.57;;
5149;SDS011;2593;52.466;13.436;2023-03-01T04:47:48;36.20;;;17.80;;
5149;SDS011;2593;52.466;13.436;2023-03-01T04:50:15;40.20;;;17.43;;
5149;SDS011;2593;52.466;13.436;2023-03-01T04:52:42;30.60;;;16.77;;
5149;SDS011;2593;52.466;13.436;2023-03-01T04:55:09;28.30;;;16.63;;
5149;SDS011;2593;52.466;13.436;2023-03-01T04:57:35;34.53;;;17.60;;
5149;SDS011;2593;52.466;13.436;2023-03-01T05:00:01;38.50;;;17.80;;
5149;SDS011;2593;52.466;13.436;2023-03-01T05:02:44;39.47;;;18.83;;
5149;SDS011;2593;52.466;13.436;2023-03-01T05:05:14;42.93;;;18.50;;
5149;SDS011;2593;52.466;13.436;2023-03-01T05:07:41;37.70;;;18.20;;
5149;SDS011;2593;52.466;13.436;2023-03-01T05:10:07;35.27;;;18.63;;
5149;SDS011;2593;52.466;13.436;2023-03-01T05:12:32;30.63;;;16.43;;
5149;SDS011;2593;52.466;13.436;2023-03-01T05:14:58;30.93;;;17.63;;
5149;SDS011;2593;52.466;13.436;2023-03-01T05:17:24;33.10;;;18.10;;
5149;SDS011;2593;52.466;13.436;2023-03-01T05:19:49;28.43;;;16.77;;
5149;SDS011;2593;52.466;13.436;2023-03-01T05:22:15;35.40;;;18.30;;
5149;SDS011;2593;52.466;13.436;2023-03-01T05:24:41;37.23;;;19.00;;
5149;SDS011;2593;52.466;13.436;2023-03-01T05:27:07;33.53;;;19.07;;
5149;SDS011;2593;52.466;13.436;2023-03-01T05:29:33;43.20;;;18.20;;
5149;SDS011;2593;52.466;13.436;2023-03-01T05:32:00;38.20;;;19.20;;
5149;SDS011;2593;52.466;13.436;2023-03-01T05:34:29;34.33;;;18.37;;
5149;SDS011;2593;52.466;13.436;2023-03-01T05:36:57;39.30;;;18.87;;
5149;SDS011;2593;52.466;13.436;2023-03-01T05:39:24;33.40;;;18.63;;
5149;SDS011;2593;52.466;13.436;2023-03-01T05:41:57;42.97;;;20.60;;
5149;SDS011;2593;52.466;13.436;2023-03-01T05:44:24;46.93;;;18.53;;
5149;SDS011;2593;52.466;13.436;2023-03-01T05:46:50;45.47;;;19.37;;
5149;SDS011;2593;52.466;13.436;2023-03-01T05:49:17;42.47;;;19.27;;
5149;SDS011;2593;52.466;13.436;2023-03-01T05:51:43;40.20;;;18.37;;
5149;SDS011;2593;52.466;13.436;2023-03-01T05:54:13;35.50;;;17.80;;
5149;SDS011;2593;52.466;13.436;2023-03-01T05:56:39;42.90;;;19.37;;
5149;SDS011;2593;52.466;13.436;2023-03-01T05:59:05;39.73;;;18.70;;
5149;SDS011;2593;52.466;13.436;2023-03-01T06:01:31;43.13;;;19.27;;
5149;SDS011;2593;52.466;13.436;2023-03-01T06:03:58;33.27;;;18.10;;
5149;SDS011;2593;52.466;13.436;2023-03-01T06:06:24;36.57;;;18.23;;
5149;SDS011;2593;52.466;13.436;2023-03-01T06:08:50;37.13;;;19.60;;
5149;SDS011;2593;52.466;13.436;2023-03-01T06:11:16;42.43;;;18.67;;
5149;SDS011;2593;52.466;13.436;2023-03-01T06:13:42;39.17;;;19.10;;
5149;SDS011;2593;52.466;13.436;2023-03-01T06:16:08;51.53;;;21.83;;
5149;SDS011;2593;52.466;13.436;2023-03-01T06:18:34;38.53;;;18.47;;
5149;SDS011;2593;52.466;13.436;2023-03-01T06:21:01;44.07;;;20.70;;
5149;SDS011;2593;52.466;13.436;2023-03-01T06:23:27;47.83;;;20.50;;
5149;SDS011;2593;52.466;13.436;2023-03-01T06:25:52;37.33;;;17.67;;
5149;SDS011;2593;52.466;13.436;2023-03-01T06:28:18;43.77;;;20.73;;
5149;SDS011;2593;52.466;13.436;2023-03-01T06:30:44;45.33;;;21.00;;
5149;SDS011;2593;52.466;13.436;2023-03-01T06:33:10;49.77;;;21.47;;
5149;SDS011;2593;52.466;13.436;2023-03-01T06:35:35;41.90;;;20.40;;
5149;SDS011;2593;52.466;13.436;2023-03-01T06:38:02;45.70;;;20.17;;
5149;SDS011;2593;52.466;13.436;2023-03-01T06:40:28;40.77;;;20.80;;
5149;SDS011;2593;52.466;13.436;2023-03-01T06:42:56;36.73;;;19.13;;
5149;SDS011;2593;52.466;13.436;2023-03-01T06:45:22;47.53;;;20.57;;
5149;SDS011;2593;52.466;13.436;2023-03-01T06:47:48;63.97;;;20.63;;
5149;SDS011;2593;52.466;13.436;2023-03-01T06:50:14;37.30;;;17.83;;
5149;SDS011;2593;52.466;13.436;2023-03-01T06:52:41;48.87;;;18.80;;
5149;SDS011;2593;52.466;13.436;2023-03-01T06:55:08;34.37;;;18.83;;
5149;SDS011;2593;52.466;13.436;2023-03-01T06:57:34;31.23;;;18.60;;
5149;SDS011;2593;52.466;13.436;2023-03-01T07:00:00;40.93;;;19.50;;
5149;SDS011;2593;52.466;13.436;2023-03-01T07:02:26;35.53;;;19.37;;
5149;SDS011;2593;52.466;13.436;2023-03-01T07:04:51;54.50;;;19.40;;
5149;SDS011;2593;52.466;13.436;2023-03-01T07:07:17;47.63;;;19.33;;
5149;SDS011;2593;52.466;13.436;2023-03-01T07:09:46;48.90;;;20.73;;
5149;SDS011;2593;52.466;13.436;2023-03-01T07:12:13;38.93;;;19.07;;
5149;SDS011;2593;52.466;13.436;2023-03-01T07:14:39;42.90;;;19.87;;
5149;SDS011;2593;52.466;13.436;2023-03-01T07:17:05;45.90;;;21.10;;
5149;SDS011;2593;52.466;13.436;2023-03-01T07:19:31;48.03;;;19.43;;
5149;SDS011;2593;52.466;13.436;2023-03-01T07:21:56;40.43;;;20.30;;
5149;SDS011;2593;52.466;13.436;2023-03-01T07:24:22;55.40;;;22.40;;
5149;SDS011;2593;52.466;13.436;2023-03-01T07:26:49;42.63;;;20.50;;
5149;SDS011;2593;52.466;13.436;2023-03-01T07:29:15;44.80;;;21.47;;
5149;SDS011;2593;52.466;13.436;2023-03-01T07:31:41;38.37;;;20.00;;
5149;SDS011;2593;52.466;13.436;2023-03-01T07:34:06;56.00;;;21.70;;
5149;SDS011;2593;52.466;13.436;2023-03-01T07:36:32;40.43;;;20.50;;
5149;SDS011;2593;52.466;13.436;2023-03-01T07:38:58;45.70;;;20.30;;
5149;SDS011;2593;52.466;13.436;2023-03-01T07:41:24;39.80;;;19.43;;
5149;SDS011;2593;52.466;13.436;2023-03-01T07:43:50;42.30;;;20.63;;
5149;SDS011;2593;52.466;13.436;2023-03-01T07:46:15;42.87;;;21.90;;
5149;SDS011;2593;52.466;13.436;2023-03-01T07:48:42;45.27;;;23.43;;
5149;SDS011;2593;52.466;13.436;2023-03-01T07:51:09;51.30;;;23.53;;
5149;SDS011;2593;52.466;13.436;2023-03-01T07:53:35;79.17;;;24.20;;
5149;SDS011;2593;52.466;13.436;2023-03-01T07:56:04;35.77;;;19.17;;
5149;SDS011;2593;52.466;13.436;2023-03-01T07:58:33;38.33;;;18.70;;
5149;SDS011;2593;52.466;13.436;2023-03-01T08:01:01;33.93;;;18.03;;
5149;SDS011;2593;52.466;13.436;2023-03-01T08:03:27;40.33;;;19.20;;
5149;SDS011;2593;52.466;13.436;2023-03-01T08:05:53;40.40;;;20.13;;
5149;SDS011;2593;52.466;13.436;2023-03-01T08:08:19;49.70;;;20.80;;
5149;SDS011;2593;52.466;13.436;2023-03-01T08:10:45;39.40;;;18.80;;
5149;SDS011;2593;52.466;13.436;2023-03-01T08:13:10;33.80;;;18.37;;
5149;SDS011;2593;52.466;13.436;2023-03-01T08:15:36;36.27;;;17.57;;
5149;SDS011;2593;52.466;13.436;2023-03-01T08:18:01;33.47;;;16.90;;
5149;SDS011;2593;52.466;13.436;2023-03-01T08:20:27;29.90;;;16.20;;
5149;SDS011;2593;52.466;13.436;2023-03-01T08:22:53;44.37;;;18.67;;
5149;SDS011;2593;52.466;13.436;2023-03-01T08:25:18;25.53;;;14.43;;
5149;SDS011;2593;52.466;13.436;2023-03-01T08:27:44;32.30;;;15.10;;
5149;SDS011;2593;52.466;13.436;2023-03-01T08:30:10;37.03;;;17.00;;
5149;SDS011;2593;52.466;13.436;2023-03-01T08:32:39;37.37;;;17.53;;
5149;SDS011;2593;52.466;13.436;2023-03-01T08:35:05;33.60;;;18.17;;
5149;SDS011;2593;52.466;13.436;2023-03-01T08:37:31;35.43;;;18.60;;
5149;SDS011;2593;52.466;13.436;2023-03-01T08:39:58;43.13;;;21.50;;
5149;SDS011;2593;52.466;13.436;2023-03-01T08:42:25;28.67;;;17.27;;
5149;SDS011;2593;52.466;13.436;2023-03-01T08:44:51;41.43;;;18.03;;
5149;SDS011;2593;52.466;13.436;2023-03-01T08:47:16;30.20;;;16.70;;
5149;SDS011;2593;52.466;13.436;2023-03-01T08:49:42;27.33;;;16.07;;
5149;SDS011;2593;52.466;13.436;2023-03-01T08:52:08;25.30;;;14.80;;
5149;SDS011;2593;52.466;13.436;2023-03-01T08:54:33;25.60;;;15.60;;
5149;SDS011;2593;52.466;13.436;2023-03-01T08:57:01;20.73;;;13.50;;
5149;SDS011;2593;52.466;13.436;2023-03-01T08:59:27;24.00;;;12.80;;
5149;SDS011;2593;52.466;13.436;2023-03-01T09:01:54;20.67;;;12.87;;
5149;SDS011;2593;52.466;13.436;2023-03-01T09:04:20;23.23;;;11.57;;
5149;SDS011;2593;52.466;13.436;2023-03-01T09:06:46;13.83;;;10.23;;
5149;SDS011;2593;52.466;13.436;2023-03-01T09:09:15;20.60;;;11.30;;
5149;SDS011;2593;52.466;13.436;2023-03-01T09:11:43;20.85;;;11.48;;
5149;SDS011;2593;52.466;13.436;2023-03-01T09:14:11;16.25;;;9.65;;
5149;SDS011;2593;52.466;13.436;2023-03-01T09:16:37;22.10;;;10.60;;
5149;SDS011;2593;52.466;13.436;2023-03-01T09:19:03;13.77;;;9.73;;
5149;SDS011;2593;52.466;13.436;2023-03-01T09:21:29;28.75;;;10.82;;
5149;SDS011;2593;52.466;13.436;2023-03-01T09:23:56;23.55;;;11.02;;
5149;SDS011;2593;52.466;13.436;2023-03-01T09:26:22;20.83;;;10.48;;
5149;SDS011;2593;52.466;13.436;2023-03-01T09:28:49;17.10;;;11.50;;
5149;SDS011;2593;52.466;13.436;2023-03-01T09:31:17;20.85;;;12.05;;
5149;SDS011;2593;52.466;13.436;2023-03-01T09:33:48;16.73;;;10.40;;
5149;SDS011;2593;52.466;13.436;2023-03-01T09:36:16;18.88;;;10.68;;
5149;SDS011;2593;52.466;13.436;2023-03-01T09:38:44;20.40;;;11.00;;
5149;SDS011;2593;52.466;13.436;2023-03-01T09:41:36;24.63;;;11.38;;
5149;SDS011;2593;52.466;13.436;2023-03-01T09:44:05;27.67;;;11.00;;
5149;SDS011;2593;52.466;13.436;2023-03-01T09:46:41;17.30;;;11.13;;
5149;SDS011;2593;52.466;13.436;2023-03-01T09:49:11;13.30;;;9.82;;
5149;SDS011;2593;52.466;13.436;2023-03-01T09:51:42;21.08;;;11.75;;
5149;SDS011;2593;52.466;13.436;2023-03-01T09:54:12;13.93;;;9.80;;
5149;SDS011;2593;52.466;13.436;2023-03-01T09:56:40;16.00;;;9.48;;
5149;SDS011;2593;52.466;13.436;2023-03-01T10:07:16;11.20;;;8.50;;
5149;SDS011;2593;52.466;13.436;2023-03-01T10:09:56;8.05;;;7.25;;
5149;SDS011;2593;52.466;13.436;2023-03-01T10:12:24;11.65;;;6.88;;
5149;SDS011;2593;52.466;13.436;2023-03-01T10:14:59;11.48;;;7.40;;
5149;SDS011;2593;52.466;13.436;2023-03-01T10:20:21;9.93;;;6.75;;
5149;SDS011;2593;52.466;13.436;2023-03-01T10:22:47;7.85;;;6.45;;
5149;SDS011;2593;52.466;13.436;2023-03-01T10:25:20;12.45;;;6.60;;
5149;SDS011;2593;52.466;13.436;2023-03-01T10:27:51;13.70;;;6.30;;
5149;SDS011;2593;52.466;13.436;2023-03-01T10:30:37;6.90;;;5.35;;
5149;SDS011;2593;52.466;13.436;2023-03-01T10:33:15;11.48;;;6.28;;
5149;SDS011;2593;52.466;13.436;2023-03-01T10:35:48;14.55;;;6.10;;
5149;SDS011;2593;52.466;13.436;2023-03-01T10:38:15;18.65;;;6.43;;
5149;SDS011;2593;52.466;13.436;2023-03-01T10:43:49;18.50;;;7.05;;
5149;SDS011;2593;52.466;13.436;2023-03-01T10:46:27;20.90;;;7.73;;
5149;SDS011;2593;52.466;13.436;2023-03-01T10:49:18;19.43;;;9.20;;
5149;SDS011;2593;52.466;13.436;2023-03-01T10:51:51;13.93;;;7.93;;
5149;SDS011;2593;52.466;13.436;2023-03-01T10:56:59;17.53;;;7.37;;
5149;SDS011;2593;52.466;13.436;2023-03-01T10:59:28;15.20;;;6.40;;
5149;SDS011;2593;52.466;13.436;2023-03-01T11:02:15;12.67;;;5.57;;
5149;SDS011;2593;52.466;13.436;2023-03-01T11:05:07;9.63;;;5.60;;
5149;SDS011;2593;52.466;13.436;2023-03-01T11:07:49;22.07;;;6.27;;
5149;SDS011;2593;52.466;13.436;2023-03-01T11:10:19;8.07;;;5.60;;
5149;SDS011;2593;52.466;13.436;2023-03-01T11:12:47;12.20;;;6.30;;
5149;SDS011;2593;52.466;13.436;2023-03-01T11:15:26;16.77;;;7.27;;
5149;SDS011;2593;52.466;13.436;2023-03-01T11:17:54;15.10;;;5.77;;
5149;SDS011;2593;52.466;13.436;2023-03-01T11:23:13;11.00;;;5.63;;
5149;SDS011;2593;52.466;13.436;2023-03-01T11:25:41;18.23;;;7.30;;
5149;SDS011;2593;52.466;13.436;2023-03-01T11:28:11;7.70;;;4.63;;
5149;SDS011;2593;52.466;13.436;2023-03-01T11:30:47;10.30;;;5.37;;
5149;SDS011;2593;52.466;13.436;2023-03-01T11:38:55;14.53;;;5.77;;
5149;SDS011;2593;52.466;13.436;2023-03-01T11:41:28;20.30;;;6.00;;
5149;SDS011;2593;52.466;13.436;2023-03-01T11:46:29;13.40;;;7.20;;
5149;SDS011;2593;52.466;13.436;2023-03-01T11:57:43;9.60;;;5.03;;
5149;SDS011;2593;52.466;13.436;2023-03-01T12:08:43;7.87;;;3.43;;
5149;SDS011;2593;52.466;13.436;2023-03-01T12:11:20;8.60;;;4.03;;
5149;SDS011;2593;52.466;13.436;2023-03-01T12:24:56;9.03;;;3.10;;
5149;SDS011;2593;52.466;13.436;2023-03-01T12:47:11;14.73;;;6.10;;
5149;SDS011;2593;52.466;13.436;2023-03-01T12:49:54;8.27;;;3.60;;
5149;SDS011;2593;52.466;13.436;2023-03-01T12:52:35;7.10;;;3.30;;
5149;SDS011;2593;52.466;13.436;2023-03-01T12:55:22;6.83;;;3.27;;
5149;SDS011;2593;52.466;13.436;2023-03-01T13:06:30;5.73;;;2.80;;
5149;SDS011;2593;52.466;13.436;2023-03-01T13:15:45;5.33;;;2.70;;
5149;SDS011;2593;52.466;13.436;2023-03-01T13:33:47;7.30;;;2.97;;
5149;SDS011;2593;52.466;13.436;2023-03-01T13:46:48;5.87;;;2.63;;
5149;SDS011;2593;52.466;13.436;2023-03-01T13:49:18;8.40;;;3.00;;
5149;SDS011;2593;52.466;13.436;2023-03-01T13:51:46;4.57;;;2.47;;
5149;SDS011;2593;52.466;13.436;2023-03-01T13:54:14;4.23;;;2.40;;
5149;SDS011;2593;52.466;13.436;2023-03-01T13:56:44;9.07;;;2.50;;
5149;SDS011;2593;52.466;13.436;2023-03-01T13:59:15;7.53;;;2.17;;
5149;SDS011;2593;52.466;13.436;2023-03-01T14:01:42;6.33;;;2.90;;
5149;SDS011;2593;52.466;13.436;2023-03-01T14:04:21;3.93;;;2.70;;
5149;SDS011;2593;52.466;13.436;2023-03-01T14:06:47;12.27;;;2.10;;
5149;SDS011;2593;52.466;13.436;2023-03-01T14:09:17;3.80;;;2.50;;
5149;SDS011;2593;52.466;13.436;2023-03-01T14:20:20;5.03;;;2.67;;
5149;SDS011;2593;52.466;13.436;2023-03-01T14:22:48;20.27;;;4.23;;
5149;SDS011;2593;52.466;13.436;2023-03-01T14:28:04;40.23;;;10.27;;
5149;SDS011;2593;52.466;13.436;2023-03-01T14:30:43;24.80;;;6.50;;
5149;SDS011;2593;52.466;13.436;2023-03-01T14:33:21;5.73;;;2.50;;
5149;SDS011;2593;52.466;13.436;2023-03-01T14:36:05;6.20;;;3.50;;
5149;SDS011;2593;52.466;13.436;2023-03-01T14:38:42;2.50;;;2.30;;
5149;SDS011;2593;52.466;13.436;2023-03-01T14:44:02;3.47;;;3.00;;
5149;SDS011;2593;52.466;13.436;2023-03-01T14:46:32;7.00;;;4.07;;
5149;SDS011;2593;52.466;13.436;2023-03-01T14:49:05;4.30;;;3.50;;
5149;SDS011;2593;52.466;13.436;2023-03-01T14:51:35;4.97;;;3.00;;
5149;SDS011;2593;52.466;13.436;2023-03-01T14:54:02;7.10;;;2.60;;
5149;SDS011;2593;52.466;13.436;2023-03-01T14:56:28;12.47;;;3.20;;
5149;SDS011;2593;52.466;13.436;2023-03-01T14:59:09;8.07;;;3.60;;
5149;SDS011;2593;52.466;13.436;2023-03-01T15:01:36;8.67;;;2.80;;
5149;SDS011;2593;52.466;13.436;2023-03-01T15:04:02;3.30;;;2.60;;
5149;SDS011;2593;52.466;13.436;2023-03-01T15:06:28;7.27;;;3.30;;
5149;SDS011;2593;52.466;13.436;2023-03-01T15:08:54;5.60;;;3.37;;
5149;SDS011;2593;52.466;13.436;2023-03-01T15:11:29;6.40;;;3.13;;
5149;SDS011;2593;52.466;13.436;2023-03-01T15:13:56;5.70;;;3.30;;
5149;SDS011;2593;52.466;13.436;2023-03-01T15:16:24;6.70;;;3.00;;
5149;SDS011;2593;52.466;13.436;2023-03-01T15:18:58;4.30;;;3.17;;
5149;SDS011;2593;52.466;13.436;2023-03-01T15:21:33;15.07;;;5.97;;
5149;SDS011;2593;52.466;13.436;2023-03-01T15:26:54;7.10;;;4.00;;
5149;SDS011;2593;52.466;13.436;2023-03-01T15:29:27;5.47;;;3.13;;
5149;SDS011;2593;52.466;13.436;2023-03-01T15:32:02;8.97;;;3.80;;
5149;SDS011;2593;52.466;13.436;2023-03-01T15:34:30;6.20;;;3.07;;
5149;SDS011;2593;52.466;13.436;2023-03-01T15:36:58;5.70;;;2.87;;
5149;SDS011;2593;52.466;13.436;2023-03-01T15:39:42;5.03;;;2.27;;
5149;SDS011;2593;52.466;13.436;2023-03-01T15:47:52;3.27;;;2.73;;
5149;SDS011;2593;52.466;13.436;2023-03-01T15:52:54;3.77;;;2.80;;
5149;SDS011;2593;52.466;13.436;2023-03-01T15:55:25;5.07;;;3.03;;
5149;SDS011;2593;52.466;13.436;2023-03-01T16:00:59;5.63;;;3.73;;
5149;SDS011;2593;52.466;13.436;2023-03-01T16:03:24;11.70;;;3.67;;
5149;SDS011;2593;52.466;13.436;2023-03-01T16:05:50;11.07;;;5.17;;
5149;SDS011;2593;52.466;13.436;2023-03-01T16:08:16;5.07;;;3.10;;
5149;SDS011;2593;52.466;13.436;2023-03-01T16:10:43;6.20;;;2.87;;
5149;SDS011;2593;52.466;13.436;2023-03-01T16:13:10;6.97;;;2.40;;
5149;SDS011;2593;52.466;13.436;2023-03-01T16:15:37;2.17;;;1.97;;
5149;SDS011;2593;52.466;13.436;2023-03-01T16:18:04;7.00;;;3.17;;
5149;SDS011;2593;52.466;13.436;2023-03-01T16:20:31;3.47;;;2.90;;
5149;SDS011;2593;52.466;13.436;2023-03-01T16:22:58;4.43;;;4.03;;
5149;SDS011;2593;52.466;13.436;2023-03-01T16:25:27;5.13;;;4.23;;
5149;SDS011;2593;52.466;13.436;2023-03-01T16:27:54;2.47;;;2.27;;
5149;SDS011;2593;52.466;13.436;2023-03-01T16:30:21;6.60;;;4.73;;
5149;SDS011;2593;52.466;13.436;2023-03-01T16:32:47;8.73;;;2.50;;
5149;SDS011;2593;52.466;13.436;2023-03-01T16:35:15;4.50;;;2.47;;
5149;SDS011;2593;52.466;13.436;2023-03-01T16:37:42;15.83;;;3.07;;
5149;SDS011;2593;52.466;13.436;2023-03-01T16:40:19;5.17;;;2.93;;
5149;SDS011;2593;52.466;13.436;2023-03-01T16:42:52;12.53;;;4.33;;
5149;SDS011;2593;52.466;13.436;2023-03-01T16:45:20;12.07;;;3.87;;
5149;SDS011;2593;52.466;13.436;2023-03-01T16:47:46;13.00;;;3.83;;
5149;SDS011;2593;52.466;13.436;2023-03-01T16:50:11;8.67;;;3.33;;
5149;SDS011;2593;52.466;13.436;2023-03-01T16:52:37;11.80;;;3.53;;
5149;SDS011;2593;52.466;13.436;2023-03-01T16:55:03;6.40;;;3.20;;
5149;SDS011;2593;52.466;13.436;2023-03-01T16:57:31;6.27;;;3.97;;
5149;SDS011;2593;52.466;13.436;2023-03-01T16:59:59;9.07;;;4.63;;
5149;SDS011;2593;52.466;13.436;2023-03-01T17:02:24;17.03;;;7.40;;
5149;SDS011;2593;52.466;13.436;2023-03-01T17:04:51;14.03;;;7.60;;
5149;SDS011;2593;52.466;13.436;2023-03-01T17:07:18;21.70;;;7.77;;
5149;SDS011;2593;52.466;13.436;2023-03-01T17:09:44;59.23;;;7.57;;
5149;SDS011;2593;52.466;13.436;2023-03-01T17:12:11;9.87;;;5.60;;
5149;SDS011;2593;52.466;13.436;2023-03-01T17:14:37;13.57;;;6.27;;
5149;SDS011;2593;52.466;13.436;2023-03-01T17:17:03;18.50;;;7.03;;
5149;SDS011;2593;52.466;13.436;2023-03-01T17:19:29;14.27;;;6.80;;
5149;SDS011;2593;52.466;13.436;2023-03-01T17:21:56;10.47;;;6.20;;
5149;SDS011;2593;52.466;13.436;2023-03-01T17:24:22;13.37;;;5.63;;
5149;SDS011;2593;52.466;13.436;2023-03-01T17:26:48;10.50;;;5.20;;
5149;SDS011;2593;52.466;13.436;2023-03-01T17:29:13;11.23;;;4.80;;
5149;SDS011;2593;52.466;13.436;2023-03-01T17:31:42;19.13;;;6.20;;